KCDS/CDS METAR and TAF weather

Enter ICAO airport designator
Station Type Date Time Source
KCDS METAR 2020/06/06 13:53 UTC NOAA

KCDS 061353Z AUTO 18008KT 10SM CLR 26/19 A3000 RMK AO2 SLP127 T02610194


Station Type Date Time Source
KCDS Decoded METAR 2020/06/06 13:53 UTC NOAA

CHILDRESS MUNICIPAL AIRPORT, TX, United States (KCDS) 34-26N 100-17W 594M
Jun 06, 2020 - 09:53 AM EDT / 2020.06.06 1353 UTC
Wind: from the S (180 degrees) at 9 MPH (8 KT):0
Visibility: 10 mile(s):0
Sky conditions: clear
Temperature: 79.0 F (26.1 C)
Dew Point: 66.9 F (19.4 C)
Relative Humidity: 66%
Pressure (altimeter): 30 in. Hg (1015 hPa)
ob: KCDS 061353Z AUTO 18008KT 10SM CLR 26/19 A3000 RMK AO2 SLP127 T02610194
cycle: 14

Station Type Date Time Source
KCDS TAF 2020/06/06 13:52 UTC NOAA

TAF
AMD KCDS 061250Z 0613/0712 20010KT P6SM SCT250
FM062000 16015KT P6SM FEW250

Example: see airport list